createdAt,value
2018-11-04T00:02:29.584Z,0.20
2018-11-04T00:05:32.621Z,0.20
2018-11-04T00:08:35.657Z,0.20
2018-11-04T00:11:38.747Z,0.20
2018-11-04T00:14:41.741Z,0.20
2018-11-04T00:17:44.769Z,0.20
2018-11-04T00:20:47.820Z,0.20
2018-11-04T00:23:51.145Z,0.10
2018-11-04T00:26:54.185Z,0.10
2018-11-04T00:29:57.307Z,0.10
2018-11-04T00:33:00.299Z,0.10
2018-11-04T00:36:03.356Z,0.10
2018-11-04T00:39:07.735Z,0.10
2018-11-04T00:42:10.712Z,0.10
2018-11-04T00:45:13.738Z,0.10
2018-11-04T00:48:16.695Z,0.00
2018-11-04T00:51:19.668Z,0.00
2018-11-04T00:54:22.687Z,0.00
2018-11-04T00:57:25.648Z,0.00
2018-11-04T01:00:28.783Z,0.00
2018-11-04T01:03:31.836Z,0.00
2018-11-04T01:06:34.856Z,0.00
2018-11-04T01:09:37.816Z,0.00
2018-11-04T01:12:41.889Z,0.00
2018-11-04T01:15:44.924Z,0.00
2018-11-04T01:18:47.948Z,0.00
2018-11-04T01:21:50.984Z,-0.10
2018-11-04T01:24:54.263Z,0.00
2018-11-04T01:27:57.325Z,0.00
2018-11-04T01:31:00.324Z,0.10
2018-11-04T01:34:03.376Z,0.10
2018-11-04T01:37:06.376Z,0.10
2018-11-04T01:40:09.896Z,0.20
2018-11-04T01:43:12.991Z,0.20
2018-11-04T01:46:15.954Z,0.30
2018-11-04T01:49:18.971Z,0.40
2018-11-04T01:52:21.932Z,0.50
2018-11-04T01:55:24.963Z,0.60
2018-11-04T01:58:28.013Z,0.70
2018-11-04T02:01:31.248Z,0.70
2018-11-04T02:04:34.507Z,0.70
2018-11-04T02:07:37.732Z,0.70
2018-11-04T02:10:40.797Z,0.70
2018-11-04T02:13:43.819Z,0.70
2018-11-04T02:16:46.876Z,0.80
2018-11-04T02:19:49.996Z,0.90
2018-11-04T02:22:52.959Z,1.00
2018-11-04T02:25:56.023Z,1.10
2018-11-04T02:28:59.047Z,1.20
2018-11-04T02:32:02.384Z,1.30
2018-11-04T02:35:05.748Z,1.40
2018-11-04T02:38:08.831Z,1.40
2018-11-04T02:41:11.828Z,1.40
2018-11-04T02:44:14.848Z,1.50
2018-11-04T02:47:17.908Z,1.60
2018-11-04T02:50:20.984Z,1.70
2018-11-04T02:53:23.991Z,1.80
2018-11-04T02:56:27.119Z,1.90
2018-11-04T02:59:30.180Z,2.00
2018-11-04T03:02:33.404Z,2.10
2018-11-04T03:05:36.465Z,2.20
2018-11-04T03:08:39.592Z,2.30
2018-11-04T03:11:42.652Z,2.40
2018-11-04T03:14:45.783Z,2.50
2018-11-04T03:17:48.837Z,2.60
2018-11-04T03:20:52.064Z,2.70
2018-11-04T03:23:55.125Z,2.80
2018-11-04T03:26:58.248Z,2.90
2018-11-04T03:30:01.307Z,3.00
2018-11-04T03:33:04.444Z,3.10
2018-11-04T03:36:07.600Z,3.10
2018-11-04T03:39:11.128Z,3.20
2018-11-04T03:42:14.196Z,3.30
2018-11-04T03:45:17.448Z,3.30
2018-11-04T03:48:20.480Z,3.40
2018-11-04T03:51:23.500Z,3.40
2018-11-04T03:54:26.564Z,3.60
2018-11-04T03:57:29.585Z,3.60
2018-11-04T04:00:32.646Z,3.70
2018-11-04T04:03:35.776Z,3.80
2018-11-04T04:06:38.739Z,3.80
2018-11-04T04:13:08.124Z,4.10
2018-11-04T04:16:11.217Z,4.20
2018-11-04T04:19:14.514Z,4.30
2018-11-04T04:22:17.612Z,4.30
2018-11-04T04:25:21.313Z,4.40
2018-11-04T04:28:24.406Z,4.40
2018-11-04T04:31:28.830Z,4.40
2018-11-04T04:34:31.922Z,4.30
2018-11-04T04:37:35.630Z,4.30
2018-11-04T04:40:39.337Z,4.30
2018-11-04T04:43:43.145Z,4.30
2018-11-04T04:46:46.854Z,4.30
2018-11-04T04:49:49.946Z,4.30
2018-11-04T04:52:53.652Z,4.30
2018-11-04T04:55:58.077Z,4.40
2018-11-04T04:59:01.631Z,4.40
2018-11-04T05:02:05.684Z,4.40
2018-11-04T05:05:09.336Z,4.50
2018-11-04T05:08:12.905Z,4.40
2018-11-04T05:11:16.101Z,4.40
2018-11-04T05:14:19.471Z,4.40
2018-11-04T05:17:22.703Z,4.40
2018-11-04T05:20:26.056Z,4.50
2018-11-04T05:23:29.202Z,4.50
2018-11-04T05:26:32.454Z,4.60
2018-11-04T05:29:35.699Z,4.70
2018-11-04T05:32:38.775Z,4.70
2018-11-04T05:35:41.814Z,4.70
2018-11-04T05:38:44.942Z,4.80
2018-11-04T05:41:48.127Z,4.80
2018-11-04T05:44:51.319Z,4.90
2018-11-04T05:47:55.217Z,4.90
2018-11-04T05:50:58.243Z,5.00
2018-11-04T05:54:01.291Z,5.00
2018-11-04T05:57:04.623Z,5.10
2018-11-04T06:00:08.919Z,5.10
2018-11-04T06:03:12.247Z,5.10
2018-11-04T06:06:15.442Z,5.20
2018-11-04T06:09:18.724Z,5.20
2018-11-04T06:12:21.795Z,5.20
2018-11-04T06:15:24.915Z,5.20
2018-11-04T06:18:27.979Z,5.30
2018-11-04T06:21:31.199Z,5.30
2018-11-04T06:24:34.397Z,5.30
2018-11-04T06:27:37.603Z,5.30
2018-11-04T06:30:40.900Z,5.40
2018-11-04T06:33:44.091Z,5.40
2018-11-04T06:36:47.293Z,5.50
2018-11-04T06:39:50.392Z,5.50
2018-11-04T06:42:53.439Z,5.50
2018-11-04T06:45:56.563Z,5.60
2018-11-04T06:48:59.670Z,5.60
2018-11-04T06:52:02.711Z,5.70
2018-11-04T06:55:06.698Z,5.80
2018-11-04T06:58:09.715Z,5.80
2018-11-04T07:01:12.849Z,5.90
2018-11-04T07:04:21.255Z,5.90
2018-11-04T07:07:24.360Z,6.00
2018-11-04T07:10:27.411Z,6.10
2018-11-04T07:13:30.434Z,6.20
2018-11-04T07:16:33.522Z,6.20
2018-11-04T07:19:36.628Z,6.30
2018-11-04T07:22:39.683Z,6.40
2018-11-04T07:25:42.760Z,6.40
2018-11-04T07:28:45.763Z,6.50
2018-11-04T07:31:48.788Z,6.60
2018-11-04T07:34:51.851Z,6.80
2018-11-04T07:37:54.882Z,6.90
2018-11-04T07:40:57.931Z,7.00
2018-11-04T07:44:01.167Z,7.20
2018-11-04T07:47:04.531Z,7.20
2018-11-04T07:50:09.883Z,7.30
2018-11-04T07:53:12.963Z,7.40
2018-11-04T07:56:16.191Z,7.50
2018-11-04T07:59:19.251Z,7.50
2018-11-04T08:02:22.486Z,7.60
2018-11-04T08:05:25.539Z,7.70
2018-11-04T08:08:28.567Z,7.70
2018-11-04T08:11:31.631Z,7.80
2018-11-04T08:14:34.648Z,7.80
2018-11-04T08:17:37.923Z,7.90
2018-11-04T08:20:41.039Z,7.90
2018-11-04T08:23:44.095Z,8.00
2018-11-04T08:26:47.224Z,8.00
2018-11-04T08:29:50.282Z,8.00
2018-11-04T08:32:53.307Z,8.00
2018-11-04T08:35:56.362Z,8.00
2018-11-04T08:38:59.491Z,8.10
2018-11-04T08:42:02.555Z,8.20
2018-11-04T08:45:06.487Z,8.30
2018-11-04T08:48:09.655Z,8.40
2018-11-04T08:51:12.724Z,8.50
2018-11-04T08:54:15.739Z,8.60
2018-11-04T08:57:18.764Z,8.70
2018-11-04T09:00:21.823Z,8.70
2018-11-04T09:03:25.055Z,8.70
2018-11-04T09:06:28.176Z,8.80
2018-11-04T09:09:31.247Z,8.80
2018-11-04T09:12:34.295Z,8.90
2018-11-04T09:15:37.324Z,9.10
2018-11-04T09:18:40.479Z,9.10
2018-11-04T09:21:43.773Z,9.10
2018-11-04T09:24:46.775Z,9.20
2018-11-04T09:27:49.791Z,9.20
2018-11-04T09:30:52.858Z,9.30
2018-11-04T09:33:56.079Z,9.40
2018-11-04T09:36:59.140Z,9.50
2018-11-04T09:40:02.267Z,9.60
2018-11-04T09:43:05.423Z,9.60
2018-11-04T09:46:08.533Z,9.60
2018-11-04T09:49:11.613Z,9.70
2018-11-04T09:52:14.634Z,9.80
2018-11-04T09:55:17.696Z,9.80
2018-11-04T09:58:20.923Z,9.90
2018-11-04T10:01:23.967Z,10.00
2018-11-04T10:04:27.015Z,10.00
2018-11-04T10:07:30.066Z,10.10
2018-11-04T10:10:33.139Z,10.20
2018-11-04T10:13:36.155Z,10.20
2018-11-04T10:16:39.239Z,10.30
2018-11-04T10:19:42.362Z,10.30
2018-11-04T10:22:45.464Z,10.30
2018-11-04T10:25:48.519Z,10.30
2018-11-04T10:28:51.748Z,10.40
2018-11-04T10:31:54.807Z,10.40
2018-11-04T10:34:57.818Z,10.40
2018-11-04T10:38:00.891Z,10.40
2018-11-04T10:41:03.955Z,10.40
2018-11-04T10:44:06.974Z,10.60
2018-11-04T10:47:10.000Z,10.60
2018-11-04T10:50:13.363Z,10.60
2018-11-04T10:53:16.427Z,10.80
2018-11-04T10:56:19.455Z,10.80
2018-11-04T10:59:22.475Z,10.80
2018-11-04T11:02:25.528Z,10.80
2018-11-04T11:05:28.562Z,10.90
2018-11-04T11:08:31.616Z,11.00
2018-11-04T11:11:34.635Z,11.00
2018-11-04T11:14:37.700Z,11.10
2018-11-04T11:17:40.860Z,11.10
2018-11-04T11:20:43.879Z,11.10
2018-11-04T11:23:46.908Z,11.10
2018-11-04T11:26:49.963Z,11.20
2018-11-04T11:29:53.045Z,11.20
2018-11-04T11:32:56.048Z,11.30
2018-11-04T11:35:59.079Z,11.30
2018-11-04T11:39:02.218Z,11.20
2018-11-04T11:42:05.270Z,11.20
2018-11-04T11:45:08.982Z,11.10
2018-11-04T11:48:12.092Z,11.10
2018-11-04T11:51:15.123Z,11.10
2018-11-04T11:54:18.239Z,11.20
2018-11-04T11:57:21.300Z,11.10
2018-11-04T12:00:24.347Z,11.10
2018-11-04T12:03:27.383Z,11.20
2018-11-04T12:06:30.412Z,11.10
2018-11-04T12:09:33.465Z,11.10
2018-11-04T12:12:36.493Z,11.10
2018-11-04T12:15:39.660Z,11.20
2018-11-04T12:18:42.775Z,11.20
2018-11-04T12:21:45.835Z,11.20
2018-11-04T12:24:48.942Z,11.30
2018-11-04T12:27:52.019Z,11.30
2018-11-04T12:30:55.043Z,11.30
2018-11-04T12:33:58.103Z,11.30
2018-11-04T12:37:01.443Z,11.30
2018-11-04T12:40:06.132Z,11.20
2018-11-04T12:43:09.158Z,11.10
2018-11-04T12:46:12.216Z,11.10
2018-11-04T12:49:15.344Z,11.10
2018-11-04T12:52:18.414Z,11.20
2018-11-04T12:55:21.532Z,11.20
2018-11-04T12:58:24.688Z,11.20
2018-11-04T13:01:27.820Z,11.20
2018-11-04T13:04:31.439Z,11.20
2018-11-04T13:07:34.511Z,11.20
2018-11-04T13:10:37.578Z,11.20
2018-11-04T13:13:40.595Z,11.20
2018-11-04T13:16:43.659Z,11.20
2018-11-04T13:19:46.787Z,11.20
2018-11-04T13:22:49.839Z,11.20
2018-11-04T13:25:52.863Z,11.20
2018-11-04T13:28:55.927Z,11.20
2018-11-04T13:31:59.360Z,11.20
2018-11-04T13:35:02.519Z,11.20
2018-11-04T13:38:05.748Z,11.20
2018-11-04T13:41:08.802Z,11.30
2018-11-04T13:44:11.975Z,11.20
2018-11-04T13:47:14.995Z,11.20
2018-11-04T13:50:18.004Z,11.10
2018-11-04T13:53:21.058Z,11.10
2018-11-04T13:56:24.195Z,11.10
2018-11-04T13:59:27.239Z,11.10
2018-11-04T14:02:30.382Z,11.10
2018-11-04T14:05:33.426Z,11.00
2018-11-04T14:08:36.475Z,11.10
2018-11-04T14:11:39.554Z,11.10
2018-11-04T14:14:42.659Z,11.00
2018-11-04T14:17:45.714Z,11.00
2018-11-04T14:20:48.949Z,11.00
2018-11-04T14:23:52.020Z,11.00
2018-11-04T14:26:55.134Z,11.00
2018-11-04T14:29:58.191Z,11.00
2018-11-04T14:33:01.207Z,11.00
2018-11-04T14:36:04.267Z,11.00
2018-11-04T14:39:08.363Z,10.90
2018-11-04T14:42:11.381Z,10.90
2018-11-04T14:45:14.402Z,10.90
2018-11-04T14:48:17.459Z,10.90
2018-11-04T14:51:20.524Z,10.90
2018-11-04T14:54:23.546Z,11.00
2018-11-04T14:57:26.567Z,10.90
2018-11-04T15:00:34.264Z,10.90
2018-11-04T15:03:37.455Z,10.80
2018-11-04T15:06:40.420Z,10.80
2018-11-04T15:09:43.547Z,10.80
2018-11-04T15:12:46.603Z,10.70
2018-11-04T15:15:49.691Z,10.70
2018-11-04T15:18:52.841Z,10.80
2018-11-04T15:21:55.819Z,10.80
2018-11-04T15:24:58.877Z,10.70
2018-11-04T15:28:02.103Z,10.80
2018-11-04T15:31:05.263Z,10.90
2018-11-04T15:34:08.397Z,10.70
2018-11-04T15:37:11.351Z,10.70
2018-11-04T15:40:15.333Z,10.80
2018-11-04T15:43:18.350Z,10.70
2018-11-04T15:46:21.475Z,10.60
2018-11-04T15:49:24.535Z,10.70
2018-11-04T15:52:27.768Z,10.70
2018-11-04T15:55:30.834Z,10.70
2018-11-04T15:58:34.302Z,10.70
2018-11-04T16:01:37.327Z,10.70
2018-11-04T16:04:44.551Z,10.60
2018-11-04T16:07:43.810Z,10.60
2018-11-04T16:10:46.940Z,10.60
2018-11-04T16:13:49.999Z,10.60
2018-11-04T16:16:53.123Z,10.60
2018-11-04T16:19:56.283Z,10.50
2018-11-04T16:22:59.615Z,10.50
2018-11-04T16:26:02.675Z,10.50
2018-11-04T16:29:05.681Z,10.50
2018-11-04T16:32:08.879Z,10.50
2018-11-04T16:35:13.011Z,10.50
2018-11-04T16:38:16.050Z,10.40
2018-11-04T16:41:19.070Z,10.50
2018-11-04T16:44:22.375Z,10.40
2018-11-04T16:47:25.447Z,10.50
2018-11-04T16:50:28.444Z,10.50
2018-11-04T16:53:31.464Z,10.50
2018-11-04T16:56:34.625Z,10.40
2018-11-04T16:59:38.579Z,10.40
2018-11-04T17:02:41.733Z,10.50
2018-11-04T17:05:44.951Z,10.50
2018-11-04T17:08:47.915Z,10.50
2018-11-04T17:11:50.940Z,10.50
2018-11-04T17:14:53.999Z,10.40
2018-11-04T17:17:57.060Z,10.50
2018-11-04T17:21:00.083Z,10.50
2018-11-04T17:24:03.107Z,10.60
2018-11-04T17:27:06.168Z,10.50
2018-11-04T17:30:12.927Z,10.50
2018-11-04T17:33:15.958Z,10.50
2018-11-04T17:36:19.108Z,10.40
2018-11-04T17:39:22.199Z,10.40
2018-11-04T17:42:25.286Z,10.40
2018-11-04T17:45:28.325Z,10.50
2018-11-04T17:48:31.435Z,10.40
2018-11-04T17:51:34.471Z,10.30
2018-11-04T17:54:37.551Z,10.50
2018-11-04T17:57:40.675Z,10.50
2018-11-04T18:00:43.707Z,10.50
2018-11-04T18:03:46.759Z,10.50
2018-11-04T18:06:50.092Z,10.50
2018-11-04T18:09:53.147Z,10.50
2018-11-04T18:12:56.151Z,10.50
2018-11-04T18:15:59.231Z,10.50
2018-11-04T18:19:02.295Z,10.50
2018-11-04T18:22:05.651Z,10.50
2018-11-04T18:25:09.767Z,10.50
2018-11-04T18:28:12.811Z,10.50
2018-11-04T18:31:15.855Z,10.50
2018-11-04T18:34:18.925Z,10.50
2018-11-04T18:37:22.045Z,10.50
2018-11-04T18:40:25.103Z,10.50
2018-11-04T18:43:28.130Z,10.40
2018-11-04T18:46:31.283Z,10.50
2018-11-04T18:49:34.307Z,10.40
2018-11-04T18:52:37.754Z,10.40
2018-11-04T18:55:40.804Z,10.50
2018-11-04T18:58:43.999Z,10.40
2018-11-04T19:01:47.056Z,10.40
2018-11-04T19:04:50.208Z,10.50
2018-11-04T19:07:53.247Z,10.40
2018-11-04T19:10:56.424Z,10.40
2018-11-04T19:13:59.483Z,10.30
2018-11-04T19:17:02.550Z,10.40
2018-11-04T19:20:07.482Z,10.40
2018-11-04T19:23:10.647Z,10.30
2018-11-04T19:26:13.886Z,10.30
2018-11-04T19:29:16.938Z,10.40
2018-11-04T19:32:20.172Z,10.40
2018-11-04T19:35:23.229Z,10.30
2018-11-04T19:38:26.363Z,10.40
2018-11-04T19:41:29.442Z,10.30
2018-11-04T19:44:32.563Z,10.30
2018-11-04T19:47:35.695Z,10.20
2018-11-04T19:50:38.719Z,10.20
2018-11-04T19:53:41.786Z,10.30
2018-11-04T19:56:44.928Z,10.20
2018-11-04T19:59:47.967Z,10.30
2018-11-04T20:02:51.075Z,10.30
2018-11-04T20:05:54.210Z,10.30
2018-11-04T20:09:16.535Z,10.20
2018-11-04T20:12:24.979Z,10.20
2018-11-04T20:15:28.045Z,10.20
2018-11-04T20:18:36.569Z,10.20
2018-11-04T20:21:39.667Z,10.10
2018-11-04T20:24:48.146Z,10.10
2018-11-04T20:27:51.165Z,10.20
2018-11-04T20:30:54.502Z,10.20
2018-11-04T20:33:57.627Z,10.20
2018-11-04T20:37:00.756Z,10.30
2018-11-04T20:40:09.979Z,10.20
2018-11-04T20:43:13.079Z,10.30
2018-11-04T20:46:16.251Z,10.30
2018-11-04T20:49:24.778Z,10.20
2018-11-04T20:52:27.882Z,10.20
2018-11-04T20:55:36.560Z,10.20
2018-11-04T20:58:39.892Z,10.20
2018-11-04T21:01:42.872Z,10.20
2018-11-04T21:04:45.993Z,10.20
2018-11-04T21:07:49.186Z,10.20
2018-11-04T21:10:52.387Z,10.20
2018-11-04T21:13:55.548Z,10.10
2018-11-04T21:16:58.572Z,10.10
2018-11-04T21:20:01.630Z,10.20
2018-11-04T21:23:04.747Z,10.20
2018-11-04T21:26:07.810Z,10.20
2018-11-04T21:29:11.021Z,10.30
2018-11-04T21:32:13.892Z,10.20
2018-11-04T21:35:16.927Z,10.20
2018-11-04T21:38:20.185Z,10.10
2018-11-04T21:41:23.833Z,10.10
2018-11-04T21:44:26.941Z,10.10
2018-11-04T21:47:30.012Z,10.10
2018-11-04T21:50:33.063Z,10.10
2018-11-04T21:53:36.103Z,10.20
2018-11-04T21:56:39.357Z,10.20
2018-11-04T21:59:42.287Z,10.20
2018-11-04T22:02:45.453Z,10.20
2018-11-04T22:05:48.456Z,10.20
2018-11-04T22:08:51.520Z,10.20
2018-11-04T22:11:54.523Z,10.20
2018-11-04T22:14:57.734Z,10.30
2018-11-04T22:18:01.071Z,10.20
2018-11-04T22:21:04.240Z,10.30
2018-11-04T22:24:07.327Z,10.20
2018-11-04T22:27:10.380Z,10.20
2018-11-04T22:30:13.408Z,10.30
2018-11-04T22:33:16.463Z,10.30
2018-11-04T22:36:19.626Z,10.30
2018-11-04T22:39:22.655Z,10.20
2018-11-04T22:42:25.753Z,10.20
2018-11-04T22:45:28.731Z,10.30
2018-11-04T22:48:31.770Z,10.30
2018-11-04T22:51:34.819Z,10.30
2018-11-04T22:54:37.840Z,10.40
2018-11-04T22:57:41.410Z,10.30
2018-11-04T23:00:46.180Z,10.30
2018-11-04T23:03:49.255Z,10.30
2018-11-04T23:06:52.371Z,10.30
2018-11-04T23:09:55.419Z,10.40
2018-11-04T23:12:58.555Z,10.40
2018-11-04T23:16:01.608Z,10.30
2018-11-04T23:19:04.732Z,10.30
2018-11-04T23:22:07.794Z,10.30
2018-11-04T23:25:12.374Z,10.30
2018-11-04T23:28:15.407Z,10.40
2018-11-04T23:31:18.432Z,10.50
2018-11-04T23:34:21.491Z,10.40
2018-11-04T23:37:24.515Z,10.50
2018-11-04T23:40:27.575Z,10.50
2018-11-04T23:43:30.707Z,10.50
2018-11-04T23:46:33.767Z,10.50
2018-11-04T23:49:36.782Z,10.50
2018-11-04T23:52:39.856Z,10.50
2018-11-04T23:55:42.992Z,10.50
2018-11-04T23:58:46.031Z,10.60
